Kaisei Maru — JD3114 — position and weather

sailwx.info

Track history (hours):
 
Tides and Currents Weather Stations Pressure Air Temp Water Temp Dewpoint Dewpoint Depression Visibility Wind Speed Wind Dir Waves Ship Positions

Kaisei Maru

Last reported at 2014-Oct-24 08:27 UTC. Time now 2014-Oct-25 07:51 UTC.
Position N 32°04' E 131°34'.

Length 52 m; draft 3.7 m.

Type: Tanker. MMSI: 431001837.

Date/timePositionNaut miles runAvg speedWind from/ knotsBaromVisibWave heightAir tempDewpointWater temp
2014-Oct-24 08:27N 32°04' E 131°34'9 9.9
2014-Oct-24 07:33N 32°12' E 131°38'10 9.8
2014-Oct-24 06:33N 32°20' E 131°44'1010.1
2014-Oct-24 05:33N 32°29' E 131°50'205 9.3
2014-Oct-23 07:33N 34°37' E 135°01'8 8.0
2014-Oct-23 06:33N 34°33' E 135°09'10 9.7
2014-Oct-23 05:30N 34°27' E 135°19'1 0.2
2014-Oct-23 01:33N 34°26' E 135°19'1110.3
2014-Oct-23 00:32N 34°32' E 135°09'9 9.4
2014-Oct-22 23:32N 34°37' E 134°59'121 3.9
2014-Oct-21 16:07N 33°57' E 132°41'11810.8
2014-Oct-21 05:11N 34°36' E 134°56'5 8.2
2014-Oct-21 04:33N 34°37' E 135°02'9 8.8
2014-Oct-21 03:33N 34°37' E 135°13'1010.4
2014-Oct-21 02:33N 34°39' E 135°25'2 0.7
2014-Oct-21 00:12N 34°40' E 135°27'4 5.8
2014-Oct-20 23:33N 34°38' E 135°23'1110.6
2014-Oct-20 22:33N 34°36' E 135°10'9 8.8
2014-Oct-20 21:33N 34°37' E 134°60'  
2014-Oct-16 08:26N 32°12' E 131°37'1010.9
2014-Oct-16 07:33N 32°21' E 131°40'214 9.1
2014-Oct-15 08:04N 34°37' E 134°58'5 9.3
2014-Oct-15 07:33N 34°36' E 135°03'1010.2
2014-Oct-15 06:32N 34°38' E 135°16'8 8.1
2014-Oct-15 05:33N 34°42' E 135°24'0 0.0
2014-Oct-14 22:03N 34°42' E 135°24'2 3.3
2014-Oct-14 21:33N 34°41' E 135°23'8 8.3
2014-Oct-14 20:32N 34°41' E 135°12'0 0.0
2014-Oct-14 19:32N 34°41' E 135°12'0 0.0
2014-Oct-14 18:26N 34°41' E 135°12'0 0.0
2014-Oct-14 17:26N 34°41' E 135°12'0 0.0
2014-Oct-14 16:32N 34°41' E 135°12'0 0.0
2014-Oct-14 15:32N 34°41' E 135°12'0 0.0
2014-Oct-14 14:32N 34°41' E 135°12'0 0.0
2014-Oct-14 13:32N 34°41' E 135°12'0 0.0
2014-Oct-14 12:32N 34°41' E 135°12'0 0.0
2014-Oct-14 11:26N 34°41' E 135°12'0 0.0
2014-Oct-14 10:26N 34°41' E 135°12'0 0.0
2014-Oct-14 09:32N 34°41' E 135°12'  
Track history (hours):
 
Tides and Currents Weather Stations Pressure Air Temp Water Temp Dewpoint Dewpoint Depression Visibility Wind Speed Wind Dir Waves Ship Positions

Kaisei Maru

Last reported at 2014-Oct-24 08:27 UTC. Time now 2014-Oct-25 07:51 UTC.
Position N 32°04' E 131°34'.

Length 52 m; draft 3.7 m.

Type: Tanker. MMSI: 431001837.

Date/timePositionNaut miles runAvg speedWind from/ knotsBaromVisibWave heightAir tempDewpointWater temp
2014-Oct-24 08:27N 32°04' E 131°34'9 9.9
2014-Oct-24 07:33N 32°12' E 131°38'10 9.8
2014-Oct-24 06:33N 32°20' E 131°44'1010.1
2014-Oct-24 05:33N 32°29' E 131°50'205 9.3
2014-Oct-23 07:33N 34°37' E 135°01'8 8.0
2014-Oct-23 06:33N 34°33' E 135°09'10 9.7
2014-Oct-23 05:30N 34°27' E 135°19'1 0.2
2014-Oct-23 01:33N 34°26' E 135°19'1110.3
2014-Oct-23 00:32N 34°32' E 135°09'9 9.4
2014-Oct-22 23:32N 34°37' E 134°59'121 3.9
2014-Oct-21 16:07N 33°57' E 132°41'11810.8
2014-Oct-21 05:11N 34°36' E 134°56'5 8.2
2014-Oct-21 04:33N 34°37' E 135°02'9 8.8
2014-Oct-21 03:33N 34°37' E 135°13'1010.4
2014-Oct-21 02:33N 34°39' E 135°25'2 0.7
2014-Oct-21 00:12N 34°40' E 135°27'4 5.8
2014-Oct-20 23:33N 34°38' E 135°23'1110.6
2014-Oct-20 22:33N 34°36' E 135°10'9 8.8
2014-Oct-20 21:33N 34°37' E 134°60'  
2014-Oct-16 08:26N 32°12' E 131°37'1010.9
2014-Oct-16 07:33N 32°21' E 131°40'214 9.1
2014-Oct-15 08:04N 34°37' E 134°58'5 9.3
2014-Oct-15 07:33N 34°36' E 135°03'1010.2
2014-Oct-15 06:32N 34°38' E 135°16'8 8.1
2014-Oct-15 05:33N 34°42' E 135°24'0 0.0
2014-Oct-14 22:03N 34°42' E 135°24'2 3.3
2014-Oct-14 21:33N 34°41' E 135°23'8 8.3
2014-Oct-14 20:32N 34°41' E 135°12'0 0.0
2014-Oct-14 19:32N 34°41' E 135°12'0 0.0
2014-Oct-14 18:26N 34°41' E 135°12'0 0.0
2014-Oct-14 17:26N 34°41' E 135°12'0 0.0
2014-Oct-14 16:32N 34°41' E 135°12'0 0.0
2014-Oct-14 15:32N 34°41' E 135°12'0 0.0
2014-Oct-14 14:32N 34°41' E 135°12'0 0.0
2014-Oct-14 13:32N 34°41' E 135°12'0 0.0
2014-Oct-14 12:32N 34°41' E 135°12'0 0.0
2014-Oct-14 11:26N 34°41' E 135°12'0 0.0
2014-Oct-14 10:26N 34°41' E 135°12'0 0.0
2014-Oct-14 09:32N 34°41' E 135°12'  

Dump ship's entire track history